Time;durP1;ratioP1;P1;durP2;ratioP2;P2;SDS_P1;SDS_P2;PMS_P1;PMS_P2;Temp;Humidity;BMP_temperature;BMP_pressure;BME280_temperature;BME280_humidity;BME280_pressure;Samples;Min_cycle;Max_cycle;Signal;HPM_P1;HPM_P2
2021/04/21 00:01:45;;;;;;;23.63;17.75;;;12.60;99.90;;;;;;4171032;28;20178;-69
2021/04/21 00:03:47;;;;;;;24.40;17.55;;;12.50;99.90;;;;;;4155829;28;20037;-69
2021/04/21 00:05:50;;;;;;;24.90;18.53;;;12.50;99.90;;;;;;4154757;28;20583;-68
2021/04/21 00:07:51;;;;;;;24.85;18.52;;;12.40;99.90;;;;;;4156864;28;20042;-69
2021/04/21 00:09:54;;;;;;;25.80;17.80;;;12.50;99.90;;;;;;4155857;28;20047;-69
2021/04/21 00:11:56;;;;;;;26.92;18.10;;;12.40;99.90;;;;;;4155905;28;20133;-68
2021/04/21 00:13:57;;;;;;;26.95;18.02;;;12.40;99.90;;;;;;4170662;28;20112;-69
2021/04/21 00:15:58;;;;;;;24.60;18.35;;;12.40;99.90;;;;;;4156459;28;20042;-69
2021/04/21 00:18:03;;;;;;;28.35;19.00;;;12.40;99.90;;;;;;4171004;28;20061;-69
2021/04/21 00:20:05;;;;;;;25.50;17.15;;;12.30;99.90;;;;;;4156392;28;20091;-69
2021/04/21 00:22:08;;;;;;;27.13;18.70;;;12.30;99.90;;;;;;4158495;28;20033;-69
2021/04/21 00:24:10;;;;;;;26.95;19.02;;;12.30;99.90;;;;;;4157411;28;20049;-69
2021/04/21 00:26:16;;;;;;;26.05;18.58;;;12.30;99.90;;;;;;4162640;28;20053;-69
2021/04/21 00:28:18;;;;;;;27.33;19.15;;;12.30;99.90;;;;;;4177577;28;20090;-69
2021/04/21 00:30:23;;;;;;;26.42;18.85;;;12.20;99.90;;;;;;4159694;28;20636;-69
2021/04/21 00:32:25;;;;;;;24.98;18.17;;;12.30;99.90;;;;;;4159643;28;20030;-69
2021/04/21 00:34:27;;;;;;;;;;;12.30;99.90;;;;;;4157373;28;20447;-69
2021/04/21 00:36:33;;;;;;;23.60;16.90;;;12.20;99.90;;;;;;4159816;28;19924;-69
2021/04/21 00:38:36;;;;;;;27.08;19.23;;;12.20;99.90;;;;;;4159351;28;20125;-69
2021/04/21 00:40:40;;;;;;;29.05;20.48;;;12.20;99.90;;;;;;4191139;28;20634;-69
2021/04/21 00:43:00;;;;;;;23.15;18.00;;;12.20;99.90;;;;;;4159515;28;20034;-69
2021/04/21 00:45:07;;;;;;;27.10;19.83;;;12.10;99.90;;;;;;4148924;28;20129;-69
2021/04/21 00:47:15;;;;;;;27.08;19.48;;;12.10;99.90;;;;;;4177109;28;20045;-69
2021/04/21 00:49:20;;;;;;;27.10;19.73;;;12.10;99.90;;;;;;4158986;28;20713;-69
2021/04/21 00:51:35;;;;;;;31.02;21.75;;;12.00;99.90;;;;;;4157824;28;20324;-69
2021/04/21 00:53:41;;;;;;;32.10;21.38;;;12.00;99.90;;;;;;4161117;28;20038;-69
2021/04/21 00:56:02;;;;;;;31.33;21.67;;;12.00;99.90;;;;;;4159515;28;20145;-69
2021/04/21 00:58:11;;;;;;;30.77;21.42;;;12.00;99.90;;;;;;4173362;28;20041;-69
2021/04/21 01:00:14;;;;;;;34.25;22.52;;;12.00;99.90;;;;;;4158257;28;20038;-69
2021/04/21 01:02:18;;;;;;;31.50;22.45;;;11.90;99.90;;;;;;4159507;28;20045;-69
2021/04/21 01:04:19;;;;;;;31.23;22.33;;;11.90;99.90;;;;;;4156909;28;20994;-69
2021/04/21 01:06:26;;;;;;;31.25;22.20;;;11.90;99.90;;;;;;4159878;28;20033;-69
2021/04/21 01:08:31;;;;;;;31.60;22.05;;;11.90;99.90;;;;;;4160689;28;20038;-69
2021/04/21 01:10:52;;;;;;;34.25;22.90;;;11.90;99.90;;;;;;4161925;28;20056;-69
2021/04/21 01:12:54;;;;;;;33.13;22.92;;;11.90;99.90;;;;;;4159918;28;20025;-69
2021/04/21 01:14:55;;;;;;;35.07;23.30;;;11.90;99.90;;;;;;4158952;28;20030;-69
2021/04/21 01:17:08;;;;;;;31.20;21.45;;;11.90;99.90;;;;;;4158362;28;20048;-69
2021/04/21 01:19:27;;;;;;;30.92;21.92;;;11.80;99.90;;;;;;4157791;28;20049;-69
2021/04/21 01:21:35;;;;;;;32.72;21.63;;;11.80;99.90;;;;;;4187982;28;20029;-69
2021/04/21 01:24:06;;;;;;;31.50;22.10;;;11.80;99.90;;;;;;4184579;28;20239;-69
2021/04/21 01:26:43;;;;;;;31.15;22.35;;;11.80;99.90;;;;;;4153283;28;20064;-68
2021/04/21 01:28:50;;;;;;;34.10;24.08;;;11.70;99.90;;;;;;4157547;28;20026;-69
2021/04/21 01:30:53;;;;;;;33.30;22.85;;;11.70;99.90;;;;;;4172923;28;20041;-69
2021/04/21 01:32:59;;;;;;;30.73;21.73;;;11.70;99.90;;;;;;4157076;28;20112;-69
2021/04/21 01:35:00;;;;;;;30.35;21.65;;;11.60;99.90;;;;;;4157607;28;20037;-69
2021/04/21 01:37:04;;;;;;;32.03;21.92;;;11.60;99.90;;;;;;4173237;28;20095;-69
2021/04/21 01:39:07;;;;;;;33.42;23.35;;;11.60;99.90;;;;;;4184813;28;20619;-69
2021/04/21 01:41:13;;;;;;;32.88;21.60;;;11.60;99.90;;;;;;4158663;28;20030;-69
2021/04/21 01:43:22;;;;;;;32.92;22.13;;;11.50;99.90;;;;;;4172965;28;20543;-69
2021/04/21 01:45:26;;;;;;;33.33;22.30;;;11.50;99.90;;;;;;4157685;28;20406;-69
2021/04/21 01:47:27;;;;;;;30.55;21.88;;;11.40;99.90;;;;;;4183230;28;20047;-69
2021/04/21 01:49:36;;;;;;;29.08;20.58;;;11.40;99.90;;;;;;4181674;28;20037;-69
2021/04/21 01:51:41;;;;;;;29.90;19.85;;;11.30;99.90;;;;;;4172361;28;20044;-69
2021/04/21 01:53:50;;;;;;;27.73;19.77;;;11.40;99.90;;;;;;4159418;28;20091;-69
2021/04/21 01:55:51;;;;;;;28.42;20.42;;;11.30;99.90;;;;;;4156766;28;20065;-69
2021/04/21 01:57:57;;;;;;;26.30;19.73;;;11.30;99.90;;;;;;4156791;28;20046;-69
2021/04/21 02:00:05;;;;;;;30.38;20.38;;;11.20;99.90;;;;;;4157450;28;20120;-69
2021/04/21 02:02:43;;;;;;;28.65;20.05;;;11.20;99.90;;;;;;4157650;28;20112;-69
2021/04/21 02:05:00;;;;;;;28.48;19.52;;;11.20;99.90;;;;;;4143905;28;20125;-69
2021/04/21 02:07:41;;;;;;;29.60;20.48;;;11.20;99.90;;;;;;4157582;28;20041;-69
2021/04/21 02:10:07;;;;;;;29.58;20.20;;;11.20;99.90;;;;;;4121363;28;20038;-69
2021/04/21 02:12:20;;;;;;;32.85;21.77;;;11.10;99.90;;;;;;4154328;28;20026;-69
2021/04/21 02:14:23;;;;;;;;;;;11.10;99.90;;;;;;4154760;28;20040;-69
2021/04/21 02:16:27;;;;;;;31.33;20.90;;;11.10;99.90;;;;;;4157513;28;19913;-69
2021/04/21 02:18:48;;;;;;;29.00;20.52;;;11.10;99.90;;;;;;4177399;28;20064;-69
2021/04/21 02:21:16;;;;;;;30.42;20.67;;;11.00;99.90;;;;;;4171746;28;20044;-69
2021/04/21 02:23:29;;;;;;;28.33;19.65;;;11.00;99.90;;;;;;4154092;28;20045;-69
2021/04/21 02:25:58;;;;;;;28.50;19.10;;;11.00;99.90;;;;;;4157117;28;20551;-69
2021/04/21 02:28:16;;;;;;;28.80;20.05;;;11.00;99.90;;;;;;4152622;28;20057;-69
2021/04/21 02:30:32;;;;;;;27.55;19.95;;;10.90;99.90;;;;;;4156221;28;20035;-69
2021/04/21 02:32:55;;;;;;;26.40;19.25;;;10.90;99.90;;;;;;4170490;28;20954;-69
2021/04/21 02:35:03;;;;;;;;;;;10.90;99.90;;;;;;4153834;28;20545;-69
2021/04/21 02:37:28;;;;;;;26.25;18.27;;;10.80;99.90;;;;;;4154594;28;19960;-69
2021/04/21 02:39:38;;;;;;;25.13;18.55;;;10.80;99.90;;;;;;4154954;28;20034;-69
2021/04/21 02:42:10;;;;;;;26.92;18.38;;;10.80;99.90;;;;;;4171821;28;20436;-69
2021/04/21 02:44:42;;;;;;;27.00;18.23;;;10.80;99.90;;;;;;4129638;28;20128;-69
2021/04/21 02:46:53;;;;;;;28.42;18.73;;;10.80;99.90;;;;;;4157002;28;20046;-69
2021/04/21 02:49:04;;;;;;;27.95;19.13;;;10.80;99.90;;;;;;4178026;28;20438;-69
2021/04/21 02:51:32;;;;;;;27.75;18.80;;;10.80;99.90;;;;;;4157058;28;20124;-69
2021/04/21 02:53:47;;;;;;;29.40;18.38;;;10.70;99.90;;;;;;4171809;28;20783;-69
2021/04/21 02:56:14;;;;;;;28.88;19.33;;;10.70;99.90;;;;;;4158072;28;20033;-69
2021/04/21 02:58:48;;;;;;;25.60;18.75;;;10.70;99.90;;;;;;4157990;28;20132;-69
2021/04/21 03:00:53;;;;;;;28.83;20.25;;;10.70;99.90;;;;;;4185582;28;20044;-69
2021/04/21 03:03:16;;;;;;;29.85;20.52;;;10.70;99.90;;;;;;4171951;28;20068;-69
2021/04/21 03:05:24;;;;;;;30.17;20.25;;;10.70;99.90;;;;;;4153707;28;20057;-69
2021/04/21 03:07:39;;;;;;;32.40;20.73;;;10.70;99.90;;;;;;4156076;28;20060;-69
2021/04/21 03:09:47;;;;;;;30.77;21.30;;;10.70;99.90;;;;;;4157442;28;20042;-69
2021/04/21 03:11:49;;;;;;;30.05;19.45;;;10.70;99.90;;;;;;4156284;28;20064;-69
2021/04/21 03:14:08;;;;;;;27.60;19.67;;;10.70;99.90;;;;;;4157443;28;20033;-69
2021/04/21 03:16:13;;;;;;;30.80;19.40;;;10.70;99.90;;;;;;4163693;28;20122;-69
2021/04/21 03:18:19;;;;;;;31.95;20.13;;;10.70;99.90;;;;;;4154007;28;20516;-69
2021/04/21 03:20:22;;;;;;;29.73;19.98;;;10.70;99.90;;;;;;4156460;28;20034;-69
2021/04/21 03:22:24;;;;;;;29.70;19.38;;;10.70;99.90;;;;;;4156581;28;20053;-69
2021/04/21 03:24:29;;;;;;;30.15;20.25;;;10.70;99.90;;;;;;4157828;28;20128;-69
2021/04/21 03:26:31;;;;;;;26.23;19.35;;;10.80;99.90;;;;;;4170477;28;20033;-69
2021/04/21 03:28:35;;;;;;;30.15;20.13;;;10.80;99.90;;;;;;4160104;28;20397;-69
2021/04/21 03:30:36;;;;;;;30.58;19.85;;;10.80;99.90;;;;;;4161131;28;21267;-69
2021/04/21 03:32:41;;;;;;;30.38;20.33;;;10.80;99.90;;;;;;4158158;28;20067;-69
2021/04/21 03:34:43;;;;;;;29.33;19.25;;;10.80;99.90;;;;;;4156567;28;20110;-69
2021/04/21 03:36:44;;;;;;;29.23;19.45;;;10.90;99.90;;;;;;4156918;28;20145;-69
2021/04/21 03:38:47;;;;;;;27.60;19.30;;;10.90;99.90;;;;;;4156642;28;20045;-69
2021/04/21 03:40:48;;;;;;;28.42;18.60;;;10.90;99.90;;;;;;4171385;28;20037;-69
2021/04/21 03:42:50;;;;;;;29.75;19.92;;;10.90;99.90;;;;;;4171981;28;20385;-69
2021/04/21 03:44:52;;;;;;;28.60;19.67;;;10.90;99.90;;;;;;4155844;28;20068;-69
2021/04/21 03:46:52;;;;;;;28.90;18.80;;;10.90;99.90;;;;;;4156803;28;20037;-69
2021/04/21 03:48:53;;;;;;;24.48;18.02;;;10.90;99.90;;;;;;4155312;28;20612;-69
2021/04/21 03:50:54;;;;;;;24.85;17.27;;;10.90;99.90;;;;;;4157804;28;20106;-69
2021/04/21 03:53:00;;;;;;;25.13;17.80;;;10.90;99.90;;;;;;4172281;28;20493;-69
2021/04/21 03:55:01;;;;;;;24.50;17.95;;;10.90;99.90;;;;;;4156014;28;20592;-69
2021/04/21 03:57:03;;;;;;;23.20;17.05;;;10.90;99.90;;;;;;4156282;28;20048;-69
2021/04/21 03:59:04;;;;;;;25.10;17.73;;;10.90;99.90;;;;;;4188345;28;20032;-69
2021/04/21 04:01:14;;;;;;;25.42;17.77;;;10.90;99.90;;;;;;4159354;28;20033;-69
2021/04/21 04:03:23;;;;;;;24.85;17.27;;;10.90;99.90;;;;;;4173790;28;20044;-69
2021/04/21 04:05:28;;;;;;;26.83;17.98;;;10.90;99.90;;;;;;4160011;28;20710;-69
2021/04/21 04:07:37;;;;;;;26.10;17.58;;;10.90;99.90;;;;;;4174022;28;20424;-69
2021/04/21 04:09:38;;;;;;;24.92;17.88;;;10.80;99.90;;;;;;4173993;28;20040;-69
2021/04/21 04:11:44;;;;;;;24.73;18.13;;;10.80;99.90;;;;;;4159186;28;20065;-69
2021/04/21 04:13:48;;;;;;;25.08;17.73;;;10.90;99.90;;;;;;4158598;28;20068;-69
2021/04/21 04:15:49;;;;;;;25.42;17.23;;;10.80;99.90;;;;;;4159144;28;20050;-69
2021/04/21 04:17:53;;;;;;;26.25;17.08;;;10.80;99.90;;;;;;4158431;28;20749;-69
2021/04/21 04:19:54;;;;;;;26.38;18.05;;;10.80;99.90;;;;;;4157380;28;20045;-69
2021/04/21 04:22:02;;;;;;;26.98;17.58;;;10.80;99.90;;;;;;4159375;28;20029;-69
2021/04/21 04:24:09;;;;;;;23.75;16.20;;;10.80;99.90;;;;;;4158533;28;20072;-69
2021/04/21 04:26:11;;;;;;;23.50;16.63;;;10.80;99.90;;;;;;4159297;28;20060;-69
2021/04/21 04:28:12;;;;;;;;;;;10.80;99.90;;;;;;4158534;28;20044;-69
2021/04/21 04:30:14;;;;;;;22.75;15.80;;;10.80;99.90;;;;;;4157488;28;19913;-69
2021/04/21 04:32:18;;;;;;;24.17;16.30;;;10.80;99.90;;;;;;4158934;28;20037;-69
2021/04/21 04:34:21;;;;;;;23.42;16.00;;;10.80;99.90;;;;;;4159116;28;20091;-69
2021/04/21 04:36:24;;;;;;;26.95;17.83;;;10.80;99.90;;;;;;4158577;28;20120;-69
2021/04/21 04:38:25;;;;;;;22.58;15.82;;;10.80;99.90;;;;;;4180082;28;20512;-69
2021/04/21 04:40:26;;;;;;;23.80;16.90;;;10.70;99.90;;;;;;4173674;28;20060;-69
2021/04/21 04:42:27;;;;;;;24.17;17.23;;;10.80;99.90;;;;;;4158278;28;20688;-69
2021/04/21 04:44:28;;;;;;;25.95;18.02;;;10.80;99.90;;;;;;4158648;28;20542;-69
2021/04/21 04:46:31;;;;;;;23.63;17.20;;;10.80;99.90;;;;;;4158964;28;20051;-69
2021/04/21 04:48:44;;;;;;;22.63;16.63;;;10.80;99.90;;;;;;4157497;28;20065;-69
2021/04/21 04:50:46;;;;;;;25.00;16.73;;;10.70;99.90;;;;;;4159091;28;20040;-69
2021/04/21 04:52:51;;;;;;;22.80;16.17;;;10.80;99.90;;;;;;4159343;28;20215;-69
2021/04/21 04:54:54;;;;;;;22.77;15.55;;;10.70;99.90;;;;;;4157862;28;20100;-69
2021/04/21 04:56:55;;;;;;;22.65;16.02;;;10.70;99.90;;;;;;4159224;28;20041;-69
2021/04/21 04:58:57;;;;;;;23.25;15.95;;;10.70;99.90;;;;;;4158629;28;20048;-69
2021/04/21 05:01:08;;;;;;;24.73;16.10;;;10.70;99.90;;;;;;4157895;28;20179;-69
2021/04/21 05:03:23;;;;;;;24.52;16.30;;;10.70;99.90;;;;;;4157734;28;20033;-69
2021/04/21 05:05:26;;;;;;;22.60;15.75;;;10.70;99.90;;;;;;4158494;28;20025;-69
2021/04/21 05:07:34;;;;;;;24.77;16.33;;;10.80;99.90;;;;;;4158763;28;20442;-69
2021/04/21 05:09:41;;;;;;;32.78;16.13;;;10.70;99.90;;;;;;4158649;28;20770;-69
2021/04/21 05:11:44;;;;;;;23.52;16.58;;;10.70;99.90;;;;;;4157403;28;20041;-69
2021/04/21 05:13:47;;;;;;;25.50;16.88;;;10.70;99.90;;;;;;4156799;28;20033;-69
2021/04/21 05:15:51;;;;;;;23.98;16.13;;;10.70;99.90;;;;;;4158480;28;20363;-69
2021/04/21 05:18:30;;;;;;;22.73;15.27;;;10.80;99.90;;;;;;4142562;28;20084;-69
2021/04/21 05:20:57;;;;;;;21.85;15.52;;;10.70;99.90;;;;;;4156632;28;20099;-69
2021/04/21 05:23:09;;;;;;;24.80;16.45;;;10.80;99.90;;;;;;4149369;28;20036;-69
2021/04/21 05:25:42;;;;;;;23.13;15.80;;;10.80;99.90;;;;;;4157808;28;20029;-69
2021/04/21 05:27:55;;;;;;;21.70;15.73;;;10.80;99.90;;;;;;4181130;28;20126;-69
2021/04/21 05:30:24;;;;;;;24.70;17.60;;;10.70;99.90;;;;;;4158710;28;20126;-69
2021/04/21 05:32:31;;;;;;;25.95;17.45;;;10.80;99.90;;;;;;4150573;28;20490;-69
2021/04/21 05:35:09;;;;;;;25.10;17.48;;;10.80;99.90;;;;;;4157596;28;20099;-69
2021/04/21 05:37:12;;;;;;;26.35;17.13;;;10.80;99.90;;;;;;4165590;28;20052;-69
2021/04/21 05:39:37;;;;;;;28.35;17.95;;;10.80;99.90;;;;;;4156760;28;20112;-69
2021/04/21 05:42:15;;;;;;;26.75;17.83;;;10.80;99.90;;;;;;4157793;28;20071;-69
2021/04/21 05:44:53;;;;;;;25.73;17.88;;;10.90;99.90;;;;;;4158530;28;20022;-69
2021/04/21 05:46:56;;;;;;;27.73;18.55;;;11.00;99.90;;;;;;4154980;28;20627;-69
2021/04/21 05:49:06;;;;;;;24.25;17.40;;;10.90;99.90;;;;;;4159130;28;20021;-69
2021/04/21 05:51:38;;;;;;;22.83;16.85;;;10.90;99.90;;;;;;4155882;28;20038;-69
2021/04/21 05:54:16;;;;;;;29.50;18.08;;;11.00;99.90;;;;;;4153647;28;20113;-69
2021/04/21 05:56:44;;;;;;;26.25;17.85;;;11.00;99.90;;;;;;4156642;28;20029;-69
2021/04/21 05:59:09;;;;;;;26.13;17.25;;;11.10;99.90;;;;;;4158018;28;20072;-69
2021/04/21 06:01:18;;;;;;;25.20;17.92;;;11.10;99.90;;;;;;4157826;28;20056;-69
2021/04/21 06:03:21;;;;;;;27.85;18.98;;;11.10;99.90;;;;;;4182948;28;20086;-69
2021/04/21 06:05:22;;;;;;;30.30;20.00;;;11.10;99.90;;;;;;4154754;28;20041;-69
2021/04/21 06:07:25;;;;;;;31.80;19.73;;;11.20;99.90;;;;;;4158866;28;20450;-69
2021/04/21 06:09:26;;;;;;;32.25;20.23;;;11.20;99.90;;;;;;4157444;28;20029;-69
2021/04/21 06:11:29;;;;;;;30.83;20.58;;;11.20;99.90;;;;;;4158053;28;20769;-69
2021/04/21 06:13:32;;;;;;;31.63;19.52;;;11.20;99.90;;;;;;4156121;28;20033;-69
2021/04/21 06:15:37;;;;;;;32.53;21.02;;;11.20;99.90;;;;;;4157077;28;20038;-69
2021/04/21 06:17:38;;;;;;;33.15;22.30;;;11.20;99.90;;;;;;4167428;28;20037;-69
2021/04/21 06:19:43;;;;;;;33.90;21.92;;;11.20;99.90;;;;;;4157411;28;20121;-69
2021/04/21 06:21:43;;;;;;;32.90;22.38;;;11.20;99.90;;;;;;4156768;28;20083;-69
2021/04/21 06:23:44;;;;;;;31.58;21.35;;;11.20;99.90;;;;;;4170214;28;20029;-69
2021/04/21 06:26:06;;;;;;;35.35;21.70;;;11.20;99.90;;;;;;4151535;28;20040;-69
2021/04/21 06:28:16;;;;;;;34.53;22.15;;;11.10;99.90;;;;;;4152916;28;20034;-69
2021/04/21 06:30:20;;;;;;;34.15;22.65;;;11.10;99.90;;;;;;4156496;28;20049;-69
2021/04/21 06:32:21;;;;;;;30.05;20.40;;;11.10;99.90;;;;;;4155489;28;20037;-69
2021/04/21 06:34:24;;;;;;;31.98;21.33;;;11.00;99.90;;;;;;4156432;28;20043;-69
2021/04/21 06:36:29;;;;;;;;;;;11.00;99.90;;;;;;4157834;28;20113;-69
2021/04/21 06:38:32;;;;;;;29.90;19.77;;;11.00;99.90;;;;;;4156150;28;20035;-71
2021/04/21 06:40:35;;;;;;;32.72;20.58;;;11.10;99.90;;;;;;4156419;28;20048;-70
2021/04/21 06:42:35;;;;;;;34.40;20.15;;;11.10;99.90;;;;;;4169074;28;20049;-70
2021/04/21 06:44:47;;;;;;;30.42;19.55;;;11.00;99.90;;;;;;4153829;28;20088;-69
2021/04/21 06:46:51;;;;;;;28.95;18.98;;;11.10;99.90;;;;;;4169637;28;20531;-70
2021/04/21 06:48:56;;;;;;;30.52;20.25;;;11.10;99.90;;;;;;4154750;28;20273;-70
2021/04/21 06:51:08;;;;;;;32.13;21.52;;;11.10;99.90;;;;;;4153127;28;20042;-70
2021/04/21 06:53:11;;;;;;;31.30;20.73;;;11.10;99.90;;;;;;4153932;28;20388;-70
2021/04/21 06:55:14;;;;;;;33.80;22.30;;;11.10;99.90;;;;;;4175455;28;20029;-70
2021/04/21 06:57:28;;;;;;;33.38;21.73;;;11.10;99.90;;;;;;4154470;28;20171;-69
2021/04/21 06:59:29;;;;;;;32.38;21.33;;;11.10;99.90;;;;;;4153048;28;20030;-70
2021/04/21 07:01:30;;;;;;;31.77;22.10;;;11.10;99.90;;;;;;4153855;28;20022;-69
2021/04/21 07:03:30;;;;;;;29.67;18.92;;;11.00;99.90;;;;;;4154759;28;20427;-69
2021/04/21 07:05:39;;;;;;;28.17;19.10;;;11.10;99.90;;;;;;4154877;28;20387;-71
2021/04/21 07:07:40;;;;;;;33.40;19.85;;;11.10;99.90;;;;;;4152024;28;20064;-71
2021/04/21 07:09:41;;;;;;;29.67;19.10;;;11.20;99.90;;;;;;4154060;28;20030;-71
2021/04/21 07:11:43;;;;;;;32.42;20.45;;;11.20;99.90;;;;;;4154494;28;20127;-71
2021/04/21 07:13:48;;;;;;;26.58;18.58;;;11.20;99.90;;;;;;4154106;28;20549;-71
2021/04/21 07:16:13;;;;;;;33.53;19.65;;;11.30;99.90;;;;;;4155114;28;20057;-71
2021/04/21 07:18:16;;;;;;;27.35;18.80;;;11.30;99.90;;;;;;4151026;28;20505;-71
2021/04/21 07:20:17;;;;;;;;;;;11.30;99.90;;;;;;4154857;28;20113;-70
2021/04/21 07:22:18;;;;;;;30.17;19.25;;;11.40;99.90;;;;;;4151945;28;20013;-71
2021/04/21 07:24:28;;;;;;;27.17;18.45;;;11.30;99.90;;;;;;4155122;28;20033;-71
2021/04/21 07:26:30;;;;;;;25.80;17.52;;;11.40;99.90;;;;;;4175025;28;20068;-71
2021/04/21 07:28:36;;;;;;;24.42;16.67;;;11.50;99.90;;;;;;4152933;28;20532;-71
2021/04/21 07:30:37;;;;;;;24.90;17.30;;;11.50;99.90;;;;;;4153602;28;20033;-71
2021/04/21 07:32:45;;;;;;;27.25;17.88;;;11.50;99.90;;;;;;4153251;28;20149;-71
2021/04/21 07:34:57;;;;;;;23.25;16.60;;;11.60;99.90;;;;;;4167870;28;20044;-71
2021/04/21 07:36:58;;;;;;;23.88;17.02;;;11.60;99.90;;;;;;4151745;28;20042;-71
2021/04/21 07:39:07;;;;;;;23.45;16.65;;;11.70;99.90;;;;;;4155232;28;20497;-71
2021/04/21 07:41:08;;;;;;;25.88;18.40;;;11.70;99.90;;;;;;4154352;28;20083;-71
2021/04/21 07:43:14;;;;;;;25.13;17.00;;;11.70;99.90;;;;;;4153395;28;20049;-71
2021/04/21 07:45:20;;;;;;;25.63;18.05;;;11.70;99.90;;;;;;4151669;28;20046;-71
2021/04/21 07:47:24;;;;;;;25.90;18.23;;;11.80;99.90;;;;;;4168128;28;20036;-71
2021/04/21 07:49:29;;;;;;;27.42;17.55;;;11.90;99.90;;;;;;4152180;28;20056;-71
2021/04/21 07:51:30;;;;;;;22.92;16.67;;;12.00;99.90;;;;;;4153875;28;20087;-71
2021/04/21 07:53:31;;;;;;;24.27;17.58;;;11.90;99.90;;;;;;4152081;28;20498;-71
2021/04/21 07:55:32;;;;;;;24.38;15.63;;;12.00;99.90;;;;;;4154195;28;20417;-71
2021/04/21 07:57:33;;;;;;;24.13;16.50;;;12.10;99.90;;;;;;4153676;28;20048;-71
2021/04/21 07:59:40;;;;;;;22.17;15.60;;;12.10;99.90;;;;;;4153460;28;20665;-71
2021/04/21 08:01:41;;;;;;;22.15;15.70;;;12.20;99.90;;;;;;4153805;28;20595;-71
2021/04/21 08:03:42;;;;;;;25.33;17.30;;;12.30;99.90;;;;;;4153084;28;20036;-71
2021/04/21 08:05:53;;;;;;;25.48;16.05;;;12.30;99.90;;;;;;4167767;28;20060;-71
2021/04/21 08:08:00;;;;;;;22.35;15.70;;;12.50;99.90;;;;;;4153446;28;20033;-71
2021/04/21 08:10:04;;;;;;;21.38;15.43;;;12.60;99.90;;;;;;4152342;28;20060;-71
2021/04/21 08:12:14;;;;;;;23.40;14.60;;;12.70;99.90;;;;;;4169678;28;20029;-71
2021/04/21 08:14:38;;;;;;;20.17;13.35;;;12.70;99.90;;;;;;4155506;28;20053;-71
2021/04/21 08:16:39;;;;;;;21.95;14.43;;;12.90;99.90;;;;;;4155817;28;20204;-71
2021/04/21 08:18:39;;;;;;;20.35;13.75;;;13.00;99.90;;;;;;4152496;28;20199;-71
2021/04/21 08:20:44;;;;;;;17.50;13.05;;;13.10;99.90;;;;;;4155462;28;20505;-71
2021/04/21 08:23:11;;;;;;;20.45;14.05;;;13.20;99.90;;;;;;4168695;28;20052;-71
2021/04/21 08:25:12;;;;;;;18.48;12.98;;;13.40;99.90;;;;;;4154180;28;20064;-71
2021/04/21 08:27:15;;;;;;;18.77;13.30;;;13.40;99.90;;;;;;4168568;28;20121;-71
2021/04/21 08:29:17;;;;;;;29.70;14.75;;;13.60;99.90;;;;;;4152891;28;20045;-71
2021/04/21 08:31:24;;;;;;;18.90;13.18;;;13.70;99.90;;;;;;4155342;28;20044;-71
2021/04/21 08:33:26;;;;;;;17.92;11.63;;;13.80;99.90;;;;;;4170623;28;20535;-71
2021/04/21 08:35:27;;;;;;;16.60;12.55;;;13.90;99.90;;;;;;4154751;28;20496;-71
2021/04/21 08:37:28;;;;;;;19.83;12.75;;;14.00;99.90;;;;;;4154591;28;20062;-71
2021/04/21 08:39:29;;;;;;;18.23;13.07;;;14.10;99.90;;;;;;4155121;28;20609;-71
2021/04/21 08:41:32;;;;;;;16.83;12.73;;;14.20;99.90;;;;;;4155072;28;20067;-71
2021/04/21 08:43:36;;;;;;;19.58;12.48;;;14.30;99.90;;;;;;4170004;28;20481;-71
2021/04/21 08:45:37;;;;;;;17.65;12.30;;;14.40;99.90;;;;;;4147887;28;20058;-71
2021/04/21 08:47:41;;;;;;;14.88;11.23;;;14.60;99.90;;;;;;4152199;28;20029;-71
2021/04/21 08:49:43;;;;;;;22.35;12.57;;;14.70;99.90;;;;;;4156925;28;20043;-71
2021/04/21 08:51:49;;;;;;;16.23;11.73;;;14.80;99.90;;;;;;4150687;28;20069;-71
2021/04/21 08:53:52;;;;;;;16.80;12.85;;;14.80;99.90;;;;;;4143255;28;20104;-71
2021/04/21 08:55:55;;;;;;;15.80;12.02;;;14.90;99.90;;;;;;4148771;28;20080;-71
2021/04/21 08:57:58;;;;;;;15.60;10.90;;;15.00;99.90;;;;;;4163294;28;20053;-71
2021/04/21 09:00:00;;;;;;;16.75;11.50;;;15.10;99.90;;;;;;4134999;28;20068;-71
2021/04/21 09:02:01;;;;;;;17.02;11.02;;;15.20;99.90;;;;;;4142323;28;20120;-71
2021/04/21 09:04:02;;;;;;;16.10;11.18;;;15.30;99.90;;;;;;4155698;28;20686;-71
2021/04/21 09:06:04;;;;;;;16.48;11.70;;;15.30;99.90;;;;;;4156776;28;20045;-71
2021/04/21 09:08:05;;;;;;;16.30;11.27;;;15.40;99.90;;;;;;4158250;28;20050;-71
2021/04/21 09:10:16;;;;;;;18.02;11.85;;;15.40;99.90;;;;;;4156846;28;20040;-71
2021/04/21 09:12:17;;;;;;;14.18;10.55;;;15.50;99.90;;;;;;4171700;28;20585;-71
2021/04/21 09:14:18;;;;;;;18.35;11.88;;;15.50;99.90;;;;;;4155463;28;20077;-71
2021/04/21 09:16:19;;;;;;;15.27;11.60;;;15.60;99.90;;;;;;4155366;28;20128;-71
2021/04/21 09:18:34;;;;;;;14.38;10.63;;;15.60;99.90;;;;;;4156299;28;20041;-71
2021/04/21 09:20:44;;;;;;;16.70;11.80;;;15.60;99.90;;;;;;4184585;28;21937;-71
2021/04/21 09:23:03;;;;;;;15.88;10.85;;;15.60;99.90;;;;;;4153195;28;20034;-71
2021/04/21 09:25:05;;;;;;;14.25;10.32;;;15.70;99.90;;;;;;4156926;28;20056;-71
2021/04/21 09:27:38;;;;;;;18.42;11.55;;;15.70;99.90;;;;;;4171960;28;20037;-71
2021/04/21 09:29:39;;;;;;;16.08;11.23;;;15.70;99.90;;;;;;4182306;28;20029;-71
2021/04/21 09:31:40;;;;;;;19.13;10.55;;;15.70;99.90;;;;;;4156126;28;20051;-71
2021/04/21 09:33:41;;;;;;;16.02;10.80;;;15.60;99.90;;;;;;4138456;28;20029;-71
2021/04/21 09:35:44;;;;;;;18.77;10.48;;;15.60;99.90;;;;;;4155841;28;20034;-71
2021/04/21 09:37:44;;;;;;;16.85;9.95;;;15.50;99.90;;;;;;4172707;28;20048;-71
2021/04/21 09:39:45;;;;;;;17.58;10.25;;;15.50;99.90;;;;;;4154453;28;20433;-71
2021/04/21 09:41:49;;;;;;;16.48;10.93;;;15.50;99.90;;;;;;4157262;28;20033;-71
2021/04/21 09:43:50;;;;;;;14.57;9.88;;;15.40;99.90;;;;;;4155075;28;20119;-71
2021/04/21 09:45:55;;;;;;;13.98;9.45;;;15.40;99.90;;;;;;4156463;28;20046;-71
2021/04/21 09:48:19;;;;;;;15.70;10.35;;;15.40;99.90;;;;;;4157137;28;20041;-71
2021/04/21 09:50:24;;;;;;;16.15;10.40;;;15.40;99.90;;;;;;4171677;28;20040;-71
2021/04/21 09:52:24;;;;;;;15.23;10.10;;;15.40;99.90;;;;;;4154658;28;20049;-71
2021/04/21 09:54:37;;;;;;;20.08;11.40;;;15.40;99.90;;;;;;4157588;28;20672;-70
2021/04/21 09:56:37;;;;;;;13.70;9.80;;;15.40;99.90;;;;;;4155221;28;20044;-71
2021/04/21 09:58:40;;;;;;;15.90;10.63;;;15.40;99.90;;;;;;4155692;28;20552;-71
2021/04/21 10:00:41;;;;;;;17.45;11.15;;;15.50;99.90;;;;;;4157563;28;20064;-71
2021/04/21 10:02:42;;;;;;;15.57;9.90;;;15.50;99.90;;;;;;4156686;28;20567;-71
2021/04/21 10:04:42;;;;;;;18.88;10.85;;;15.60;99.90;;;;;;4154711;28;20040;-71
2021/04/21 10:06:54;;;;;;;17.67;10.13;;;15.70;99.90;;;;;;4157164;28;20045;-71
2021/04/21 10:08:55;;;;;;;14.20;9.70;;;15.70;99.90;;;;;;4156710;28;20115;-71
2021/04/21 10:11:01;;;;;;;12.80;9.30;;;15.80;99.90;;;;;;4156070;28;20045;-71
2021/04/21 10:13:16;;;;;;;15.10;9.70;;;15.90;99.90;;;;;;4155987;28;20128;-70
2021/04/21 10:15:17;;;;;;;12.45;9.15;;;15.90;99.90;;;;;;4177882;28;20066;-70
2021/04/21 10:17:21;;;;;;;13.98;8.93;;;15.90;99.90;;;;;;4156738;28;21676;-71
2021/04/21 10:19:22;;;;;;;12.88;9.35;;;16.00;99.90;;;;;;4156542;28;20497;-70
2021/04/21 10:21:23;;;;;;;13.43;8.88;;;16.10;99.90;;;;;;4156454;28;20049;-71
2021/04/21 10:23:24;;;;;;;12.48;8.73;;;16.10;99.90;;;;;;4154754;28;20045;-70
2021/04/21 10:25:25;;;;;;;11.38;8.27;;;16.20;99.90;;;;;;4157283;28;20025;-70
2021/04/21 10:27:27;;;;;;;12.43;9.20;;;16.30;99.90;;;;;;4154557;28;20057;-71
2021/04/21 10:29:27;;;;;;;14.27;9.25;;;16.30;99.90;;;;;;4155992;28;20095;-70
2021/04/21 10:31:29;;;;;;;14.05;9.65;;;16.40;99.90;;;;;;4155148;28;20037;-70
2021/04/21 10:33:30;;;;;;;14.32;8.90;;;16.50;99.90;;;;;;4154116;28;20513;-70
2021/04/21 10:35:31;;;;;;;12.30;8.73;;;16.60;99.90;;;;;;4157365;28;20057;-70
2021/04/21 10:37:39;;;;;;;10.70;8.02;;;16.60;99.90;;;;;;4154206;28;20042;-70
2021/04/21 10:39:42;;;;;;;8.88;7.30;;;16.70;99.90;;;;;;4154623;28;20037;-67
2021/04/21 10:42:00;;;;;;;12.32;7.75;;;16.80;99.90;;;;;;4155496;28;20044;-67
2021/04/21 10:44:13;;;;;;;9.80;7.40;;;16.90;99.90;;;;;;4166996;28;20505;-67
2021/04/21 10:46:13;;;;;;;;;;;16.90;99.90;;;;;;4153064;28;20078;-67
2021/04/21 10:48:38;;;;;;;13.80;8.63;;;17.00;99.90;;;;;;4151101;28;20389;-67
2021/04/21 10:50:45;;;;;;;14.50;8.70;;;17.10;99.90;;;;;;4166861;28;20607;-67